createdAt,value
2022-09-26T00:15:26.580Z,100233.38
2022-09-26T01:00:27.226Z,100208.91
2022-09-26T01:02:54.633Z,100213.41
2022-09-26T01:05:22.884Z,100210.72
2022-09-26T01:07:50.287Z,100204.72
2022-09-26T01:10:17.693Z,100204.88
2022-09-26T01:12:45.082Z,100204.56
2022-09-26T01:15:12.649Z,100200.06
2022-09-26T01:17:43.174Z,100195.75
2022-09-26T01:20:18.288Z,100185.91
2022-09-26T01:23:18.677Z,100185.91
2022-09-26T01:26:00.036Z,100180.56
2022-09-26T01:28:35.527Z,100182.41
2022-09-26T01:31:06.561Z,100180.44
2022-09-26T01:33:46.888Z,100173.41
2022-09-26T01:36:23.959Z,100177.91
2022-09-26T01:38:57.096Z,100179.44
2022-09-26T01:41:30.301Z,100176.78
2022-09-26T01:43:58.660Z,100175.91
2022-09-26T01:46:30.905Z,100171.44
2022-09-26T01:48:58.956Z,100179.59
2022-09-26T01:51:28.487Z,100173.25
2022-09-26T01:53:57.027Z,100173.41
2022-09-26T01:56:25.994Z,100172.44
2022-09-26T01:58:54.504Z,100175.91
2022-09-26T02:01:22.658Z,100171.44
2022-09-26T02:03:53.898Z,100178.28
2022-09-26T02:06:24.094Z,100168.44
2022-09-26T02:08:53.626Z,100164.78
2022-09-26T02:11:22.382Z,100161.31
2022-09-26T02:13:51.798Z,100150.63
2022-09-26T02:16:21.888Z,100155.66
2022-09-26T02:18:51.917Z,100151.31
2022-09-26T02:21:20.712Z,100152.28
2022-09-26T02:23:48.129Z,100147.13
2022-09-26T02:26:15.749Z,100144.44
2022-09-26T02:28:43.155Z,100139.31
2022-09-26T02:31:14.718Z,100132.13
2022-09-26T02:33:42.242Z,100131.47
2022-09-26T02:36:11.085Z,100135.78
2022-09-26T02:38:38.572Z,100127.94
2022-09-26T02:41:29.064Z,100132.13
2022-09-26T02:44:04.727Z,100134.13
2022-09-26T02:46:57.448Z,100130.59
2022-09-26T02:49:45.058Z,100128.94
2022-09-26T02:52:21.699Z,100125.25
2022-09-26T02:54:54.385Z,100127.09
2022-09-26T02:57:27.633Z,100122.28
2022-09-26T02:59:59.625Z,100127.63
2022-09-26T03:02:30.451Z,100119.94
2022-09-26T03:05:18.617Z,100116.13
2022-09-26T03:07:48.581Z,100109.97
2022-09-26T03:10:15.992Z,100112.63
2022-09-26T03:12:44.673Z,100106.44
2022-09-26T03:15:12.745Z,100107.47
2022-09-26T03:17:42.483Z,100104.63
2022-09-26T03:20:12.017Z,100098.44
2022-09-26T03:22:40.232Z,100094.81
2022-09-26T03:25:10.965Z,100098.97
2022-09-26T03:27:44.383Z,100094.66
2022-09-26T03:30:12.416Z,100095.47
2022-09-26T03:32:49.136Z,100095.63
2022-09-26T03:35:16.803Z,100093.97
2022-09-26T03:37:44.401Z,100093.13
2022-09-26T03:40:13.570Z,100094.81
2022-09-26T03:43:03.816Z,100093.63
2022-09-26T03:45:32.286Z,100094.81
2022-09-26T03:48:04.400Z,100088.31
2022-09-26T03:50:33.618Z,100087.63
2022-09-26T03:53:01.069Z,100081.47
2022-09-26T03:55:30.071Z,100079.63
2022-09-26T03:57:57.474Z,100080.47
2022-09-26T04:00:31.602Z,100088.66
2022-09-26T04:03:01.808Z,100079.78
2022-09-26T04:05:36.979Z,100077.97
2022-09-26T04:08:05.680Z,100081.31
2022-09-26T04:10:34.775Z,100076.97
2022-09-26T04:13:03.086Z,100077.13
2022-09-26T04:15:30.892Z,100072.81
2022-09-26T04:18:06.412Z,100062.97
2022-09-26T04:20:34.426Z,100065.63
2022-09-26T04:23:01.857Z,100072.66
2022-09-26T04:25:30.136Z,100058.63
2022-09-26T04:27:59.203Z,100063.94
2022-09-26T04:30:27.012Z,100056.97
2022-09-26T04:32:58.387Z,100064.66
2022-09-26T04:35:34.545Z,100062.66
2022-09-26T04:38:02.025Z,100062.00
2022-09-26T04:40:30.110Z,100061.13
2022-09-26T04:43:10.487Z,100063.78
2022-09-26T04:45:41.080Z,100053.28
2022-09-26T04:48:10.121Z,100053.78
2022-09-26T04:51:00.705Z,100050.25
2022-09-26T04:53:29.547Z,100054.81
2022-09-26T04:56:04.992Z,100049.13
2022-09-26T04:58:34.101Z,100049.13
2022-09-26T05:01:02.991Z,100048.31
2022-09-26T05:03:42.365Z,100050.41
2022-09-26T05:06:09.956Z,100045.28
2022-09-26T05:08:37.434Z,100046.09
2022-09-26T05:11:06.471Z,100051.28
2022-09-26T05:13:35.382Z,100047.94
2022-09-26T05:16:03.675Z,100045.59
2022-09-26T05:18:31.152Z,100050.63
2022-09-26T05:21:01.131Z,100044.44
2022-09-26T05:23:46.115Z,100043.28
2022-09-26T05:26:22.244Z,100040.31
2022-09-26T05:28:52.347Z,100037.94
2022-09-26T05:31:25.243Z,100034.28
2022-09-26T05:33:52.925Z,100040.94
2022-09-26T05:36:20.422Z,100040.94
2022-09-26T05:38:47.828Z,100038.09
2022-09-26T05:41:15.003Z,100048.63
2022-09-26T05:43:42.420Z,100039.94
2022-09-26T05:46:13.906Z,100039.25
2022-09-26T05:48:47.131Z,100037.28
2022-09-26T05:51:21.098Z,100042.28
2022-09-26T05:53:49.293Z,100045.59
2022-09-26T05:56:20.357Z,100046.25
2022-09-26T05:59:02.475Z,100041.75
2022-09-26T06:01:36.932Z,100045.28
2022-09-26T06:04:16.662Z,100040.94
2022-09-26T06:07:04.559Z,100041.28
2022-09-26T06:09:31.960Z,100041.59
2022-09-26T06:12:19.049Z,100039.25
2022-09-26T06:14:46.663Z,100045.28
2022-09-26T06:17:15.541Z,100044.44
2022-09-26T06:19:44.489Z,100036.59
2022-09-26T06:22:11.948Z,100035.13
2022-09-26T06:24:39.448Z,100032.47
2022-09-26T06:27:10.738Z,100028.31
2022-09-26T06:29:38.301Z,100029.66
2022-09-26T06:32:05.808Z,100022.66
2022-09-26T06:35:10.913Z,100030.50
2022-09-26T06:37:45.389Z,100032.00
2022-09-26T06:40:12.866Z,100028.50
2022-09-26T06:42:40.421Z,100029.03
2022-09-26T06:45:26.769Z,100019.03
2022-09-26T06:48:09.479Z,100008.50
2022-09-26T06:51:01.120Z,100014.34
2022-09-26T06:53:30.787Z,100015.72
2022-09-26T06:55:59.293Z,100014.72
2022-09-26T06:58:27.519Z,100007.59
2022-09-26T07:00:59.795Z,100010.91
2022-09-26T07:03:46.163Z,100003.91
2022-09-26T07:06:26.515Z,100002.41
2022-09-26T07:09:03.031Z,100006.09
2022-09-26T07:12:14.011Z,100004.25
2022-09-26T08:30:44.660Z,99987.78
2022-09-26T08:33:12.400Z,99986.31
2022-09-26T08:35:41.255Z,99974.28
2022-09-26T08:38:18.217Z,99974.44
2022-09-26T08:40:51.300Z,99977.47
2022-09-26T08:43:57.621Z,99978.81
2022-09-26T08:46:53.016Z,99972.81
2022-09-26T08:49:34.890Z,99969.13
2022-09-26T08:52:06.237Z,99975.78
2022-09-26T08:54:35.236Z,99958.44
2022-09-26T08:57:05.024Z,99960.13
2022-09-26T08:59:35.017Z,99956.13
2022-09-26T09:02:05.230Z,99951.97
2022-09-26T09:04:54.082Z,99952.47
2022-09-26T09:07:24.976Z,99954.28
2022-09-26T09:09:52.908Z,99943.59
2022-09-26T09:12:35.928Z,99940.28
2022-09-26T09:15:28.905Z,99935.25
2022-09-26T09:18:17.147Z,99934.44
2022-09-26T09:21:02.880Z,99927.44
2022-09-26T09:24:00.547Z,99929.94
2022-09-26T09:29:31.636Z,99931.28
2022-09-26T09:32:19.467Z,99919.41
2022-09-26T09:35:00.443Z,99925.94
2022-09-26T09:37:43.094Z,99928.13
2022-09-26T09:40:27.834Z,99913.91
2022-09-26T09:43:02.279Z,99915.44
2022-09-26T09:45:40.003Z,99923.09
2022-09-26T09:48:10.768Z,99907.44
2022-09-26T09:50:41.189Z,99912.09
2022-09-26T09:53:14.372Z,99906.75
2022-09-26T09:55:51.113Z,99903.75
2022-09-26T09:58:29.748Z,99910.75
2022-09-26T10:01:02.515Z,99901.75
2022-09-26T10:03:37.275Z,99906.06
2022-09-26T10:06:05.130Z,99901.44
2022-09-26T10:08:40.869Z,99893.44
2022-09-26T10:11:29.453Z,99889.06
2022-09-26T10:13:58.076Z,99896.75
2022-09-26T10:16:36.117Z,99891.75
2022-09-26T10:19:09.481Z,99887.88
2022-09-26T10:21:39.255Z,99879.56
2022-09-26T10:24:07.044Z,99876.38
2022-09-26T10:27:02.694Z,99866.03
2022-09-26T10:29:35.308Z,99865.72
2022-09-26T10:32:02.971Z,99856.72
2022-09-26T10:34:32.354Z,99863.38
2022-09-26T10:37:00.447Z,99857.69
2022-09-26T10:39:48.688Z,99859.72
2022-09-26T10:42:18.732Z,99853.84
2022-09-26T10:44:47.756Z,99851.16
2022-09-26T10:47:23.625Z,99843.69
2022-09-26T10:50:11.506Z,99849.38
2022-09-26T10:52:58.343Z,99852.53
2022-09-26T10:55:31.054Z,99849.22
2022-09-26T10:58:01.852Z,99853.19
2022-09-26T11:00:37.416Z,99845.19
2022-09-26T11:03:09.201Z,99836.50
2022-09-26T11:05:59.899Z,99833.50
2022-09-26T11:08:30.525Z,99820.81
2022-09-26T11:11:15.129Z,99829.47
2022-09-26T11:13:58.416Z,99820.31
2022-09-26T11:16:25.991Z,99821.97
2022-09-26T11:19:03.871Z,99821.66
2022-09-26T11:21:35.563Z,99817.34
2022-09-26T11:24:05.766Z,99819.34
2022-09-26T11:26:35.137Z,99814.19
2022-09-26T11:29:08.357Z,99810.00
2022-09-26T11:31:42.796Z,99814.69
2022-09-26T11:34:37.096Z,99807.66
2022-09-26T11:37:14.454Z,99813.00
2022-09-26T11:39:51.262Z,99802.34
2022-09-26T11:42:26.444Z,99799.97
2022-09-26T11:44:58.814Z,99803.03
2022-09-26T11:47:53.183Z,99797.84
2022-09-26T11:50:35.504Z,99798.84
2022-09-26T11:53:26.502Z,99800.69
2022-09-26T11:56:01.410Z,99798.84
2022-09-26T11:58:37.339Z,99780.97
2022-09-26T12:01:10.329Z,99774.00
2022-09-26T12:04:06.319Z,99777.50
2022-09-26T12:06:35.185Z,99770.31
2022-09-26T12:09:12.645Z,99761.97
2022-09-26T12:11:43.075Z,99760.97
2022-09-26T12:14:16.434Z,99763.16
2022-09-26T12:16:49.877Z,99746.66
2022-09-26T12:19:20.564Z,99752.66
2022-09-26T12:22:10.439Z,99757.34
2022-09-26T12:24:40.926Z,99745.63
2022-09-26T12:27:11.883Z,99749.31
2022-09-26T12:29:40.586Z,99746.97
2022-09-26T12:32:19.728Z,99744.66
2022-09-26T12:34:55.202Z,99745.16
2022-09-26T12:37:33.617Z,99736.97
2022-09-26T12:40:10.286Z,99741.97
2022-09-26T12:42:45.564Z,99741.31
2022-09-26T12:45:31.603Z,99744.00
2022-09-26T12:48:20.132Z,99733.66
2022-09-26T12:50:53.234Z,99729.63
2022-09-26T12:53:34.300Z,99724.63
2022-09-26T12:56:06.936Z,99719.66
2022-09-26T12:58:50.949Z,99718.31
2022-09-26T13:01:35.892Z,99716.63
2022-09-26T13:04:24.839Z,99712.31
2022-09-26T13:07:20.744Z,99703.66
2022-09-26T13:10:01.379Z,99708.31
2022-09-26T13:12:38.848Z,99696.66
2022-09-26T13:15:12.064Z,99709.16
2022-09-26T13:17:41.586Z,99706.66
2022-09-26T13:20:15.992Z,99700.31
2022-09-26T13:22:44.574Z,99708.50
2022-09-26T13:25:18.864Z,99694.78
2022-09-26T13:27:49.241Z,99704.00
2022-09-26T13:30:18.116Z,99705.63
2022-09-26T13:32:53.137Z,99691.31
2022-09-26T13:35:23.651Z,99699.66
2022-09-26T13:38:01.294Z,99680.16
2022-09-26T13:40:35.620Z,99677.81
2022-09-26T13:43:09.081Z,99683.81
2022-09-26T13:45:45.723Z,99681.31
2022-09-26T13:48:15.327Z,99683.31
2022-09-26T13:50:46.264Z,99679.66
2022-09-26T13:53:17.579Z,99672.66
2022-09-26T13:55:45.077Z,99662.84
2022-09-26T13:58:21.073Z,99669.16
2022-09-26T14:00:53.245Z,99669.66
2022-09-26T14:03:38.696Z,99653.66
2022-09-26T14:06:28.754Z,99650.97
2022-09-26T14:09:24.804Z,99641.97
2022-09-26T14:12:20.868Z,99628.81
2022-09-26T14:14:53.395Z,99629.28
2022-09-26T14:17:54.615Z,99632.78
2022-09-26T14:20:24.867Z,99628.97
2022-09-26T14:22:55.032Z,99630.63
2022-09-26T14:25:57.468Z,99622.63
2022-09-26T14:28:34.980Z,99622.81
2022-09-26T14:31:17.613Z,99619.13
2022-09-26T14:33:45.267Z,99617.50
2022-09-26T14:36:24.925Z,99616.81
2022-09-26T14:38:53.727Z,99609.97
2022-09-26T14:41:21.697Z,99602.28
2022-09-26T14:46:18.012Z,99598.56
2022-09-26T14:48:45.505Z,99600.59
2022-09-26T14:51:24.948Z,99598.91
2022-09-26T14:53:56.350Z,99594.44
2022-09-26T14:56:32.480Z,99589.44
2022-09-26T14:59:22.882Z,99588.63
2022-09-26T15:01:50.649Z,99590.28
2022-09-26T15:04:19.804Z,99587.59
2022-09-26T15:06:48.107Z,99585.09
2022-09-26T15:09:23.342Z,99584.28
2022-09-26T15:11:53.061Z,99592.28
2022-09-26T15:14:27.114Z,99579.94
2022-09-26T15:16:54.948Z,99578.28
2022-09-26T15:19:23.408Z,99576.44
2022-09-26T15:21:52.252Z,99575.63
2022-09-26T15:24:26.338Z,99570.47
2022-09-26T15:26:53.813Z,99578.28
2022-09-26T15:29:22.062Z,99561.63
2022-09-26T15:31:51.433Z,99568.78
2022-09-26T15:34:20.752Z,99570.63
2022-09-26T15:36:49.399Z,99566.13
2022-09-26T15:39:38.396Z,99566.28
2022-09-26T15:42:44.482Z,99563.63
2022-09-26T15:45:33.890Z,99553.97
2022-09-26T15:48:03.113Z,99556.66
2022-09-26T15:50:41.289Z,99552.31
2022-09-26T15:53:12.093Z,99552.97
2022-09-26T15:55:46.387Z,99548.66
2022-09-26T15:58:15.105Z,99545.97
2022-09-26T16:00:47.724Z,99539.63
2022-09-26T16:03:20.665Z,99540.81
2022-09-26T16:05:48.080Z,99541.63
2022-09-26T16:08:20.352Z,99541.63
2022-09-26T16:10:54.141Z,99545.34
2022-09-26T16:13:25.300Z,99552.66
2022-09-26T16:16:02.966Z,99542.66
2022-09-26T16:18:36.819Z,99536.66
2022-09-26T16:21:20.028Z,99539.31
2022-09-26T16:23:48.749Z,99535.81
2022-09-26T16:26:25.208Z,99540.16
2022-09-26T16:28:55.045Z,99533.81
2022-09-26T16:31:34.390Z,99525.16
2022-09-26T16:34:02.412Z,99528.84
2022-09-26T16:36:30.294Z,99523.69
2022-09-26T16:38:59.212Z,99524.50
2022-09-26T16:41:59.431Z,99523.88
2022-09-26T16:44:26.195Z,99525.50
2022-09-26T16:46:55.838Z,99526.34
2022-09-26T16:49:34.799Z,99512.16
2022-09-26T16:52:26.515Z,99517.34
2022-09-26T16:54:54.119Z,99515.69
2022-09-26T16:57:23.816Z,99511.53
2022-09-26T16:59:51.201Z,99507.84
2022-09-26T17:02:17.968Z,99510.34
2022-09-26T17:04:45.421Z,99512.16
2022-09-26T17:07:13.892Z,99507.84
2022-09-26T17:09:42.699Z,99509.69
2022-09-26T17:12:15.321Z,99500.69
2022-09-26T17:14:44.087Z,99506.00
2022-09-26T17:17:16.033Z,99500.03
2022-09-26T17:19:46.124Z,99506.00
2022-09-26T17:22:14.366Z,99499.22
2022-09-26T17:24:42.377Z,99499.00
2022-09-26T17:27:16.564Z,99506.19
2022-09-26T17:29:47.311Z,99502.69
2022-09-26T17:32:16.310Z,99497.19
2022-09-26T17:34:44.479Z,99499.00
2022-09-26T17:37:12.155Z,99498.84
2022-09-26T17:39:39.592Z,99496.34
2022-09-26T17:42:07.021Z,99499.84
2022-09-26T17:44:35.064Z,99491.22
2022-09-26T17:47:03.768Z,99493.88
2022-09-26T17:49:31.795Z,99490.53
2022-09-26T17:52:00.930Z,99489.38
2022-09-26T17:54:30.523Z,99488.72
2022-09-26T17:56:58.720Z,99489.53
2022-09-26T17:59:26.611Z,99480.72
2022-09-26T18:01:56.657Z,99486.88
2022-09-26T18:04:29.063Z,99478.88
2022-09-26T18:06:57.239Z,99470.53
2022-09-26T18:09:24.674Z,99472.53
2022-09-26T18:11:57.276Z,99483.00
2022-09-26T18:14:24.711Z,99467.38
2022-09-26T18:16:52.191Z,99471.69
2022-09-26T18:19:20.912Z,99478.03
2022-09-26T18:21:50.261Z,99466.34
2022-09-26T18:24:19.868Z,99466.53
2022-09-26T18:26:48.514Z,99469.38
2022-09-26T18:29:18.080Z,99468.53
2022-09-26T18:31:45.669Z,99478.41
2022-09-26T18:34:16.149Z,99466.06
2022-09-26T18:36:43.841Z,99469.38
2022-09-26T18:39:12.729Z,99464.72
2022-09-26T18:41:40.349Z,99466.69
2022-09-26T18:44:10.381Z,99465.88
2022-09-26T18:46:40.340Z,99461.75
2022-09-26T18:49:09.748Z,99458.41
2022-09-26T18:51:37.184Z,99458.41
2022-09-26T18:54:10.695Z,99455.94
2022-09-26T18:56:57.803Z,99457.59
2022-09-26T18:59:28.918Z,99451.44
2022-09-26T19:01:57.477Z,99456.09
2022-09-26T19:04:26.108Z,99459.78
2022-09-26T19:06:57.835Z,99462.44
2022-09-26T19:09:25.287Z,99454.25
2022-09-26T19:11:54.019Z,99454.44
2022-09-26T19:14:22.372Z,99450.94
2022-09-26T19:16:50.237Z,99449.09
2022-09-26T19:19:17.893Z,99450.31
2022-09-26T19:21:47.223Z,99446.78
2022-09-26T19:24:20.274Z,99436.75
2022-09-26T19:26:48.921Z,99432.47
2022-09-26T19:29:26.209Z,99433.44
2022-09-26T19:31:53.646Z,99434.09
2022-09-26T19:34:21.108Z,99432.78
2022-09-26T19:36:50.463Z,99424.63
2022-09-26T19:39:17.890Z,99429.47
2022-09-26T19:41:45.519Z,99421.28
2022-09-26T19:44:13.287Z,99419.63
2022-09-26T19:46:42.261Z,99416.78
2022-09-26T19:49:15.233Z,99421.13
2022-09-26T19:51:43.150Z,99418.78
2022-09-26T19:54:13.492Z,99412.47
2022-09-26T19:56:41.002Z,99420.47
2022-09-26T19:59:09.424Z,99423.13
2022-09-26T20:01:36.944Z,99415.13
2022-09-26T20:04:08.359Z,99414.63
2022-09-26T20:06:35.850Z,99416.31
2022-09-26T20:09:03.885Z,99411.78
2022-09-26T20:11:31.636Z,99409.31
2022-09-26T20:14:16.742Z,99408.47
2022-09-26T20:16:44.270Z,99403.78
2022-09-26T20:19:16.020Z,99400.47
2022-09-26T20:21:44.660Z,99401.50
2022-09-26T20:24:14.064Z,99393.50
2022-09-26T20:26:42.380Z,99389.81
2022-09-26T20:29:12.321Z,99383.84
2022-09-26T20:31:39.952Z,99380.19
2022-09-26T20:34:07.360Z,99387.50
2022-09-26T20:36:37.047Z,99385.69
2022-09-26T20:39:05.775Z,99378.16
2022-09-26T20:41:34.037Z,99373.34
2022-09-26T20:44:02.179Z,99376.84
2022-09-26T20:46:30.095Z,99372.34
2022-09-26T20:48:57.524Z,99367.03
2022-09-26T20:51:25.513Z,99367.03
2022-09-26T20:53:54.286Z,99368.84
2022-09-26T20:56:21.716Z,99365.34
2022-09-26T20:58:49.139Z,99359.66
2022-09-26T21:01:17.077Z,99359.03
2022-09-26T21:03:47.303Z,99353.03
2022-09-26T21:06:16.615Z,99356.84
2022-09-26T21:08:43.987Z,99352.47
2022-09-26T21:11:15.057Z,99345.13
2022-09-26T21:13:43.004Z,99346.97
2022-09-26T21:16:13.277Z,99352.47
2022-09-26T21:18:40.666Z,99342.13
2022-09-26T21:21:09.355Z,99337.63
2022-09-26T21:23:51.447Z,99335.16
2022-09-26T21:26:21.009Z,99333.31
2022-09-26T21:28:49.103Z,99339.81
2022-09-26T21:31:20.561Z,99331.63
2022-09-26T21:33:48.046Z,99339.63
2022-09-26T21:36:15.522Z,99327.34
2022-09-26T21:38:42.977Z,99327.69
2022-09-26T21:41:10.384Z,99326.88
2022-09-26T21:43:39.782Z,99323.16
2022-09-26T21:46:07.268Z,99321.31
2022-09-26T21:48:34.763Z,99323.00
2022-09-26T21:51:03.095Z,99318.50
2022-09-26T21:53:32.136Z,99317.50
2022-09-26T21:56:03.757Z,99309.66
2022-09-26T21:58:36.980Z,99305.16
2022-09-26T22:01:06.028Z,99307.00
2022-09-26T22:03:34.012Z,99301.50
2022-09-26T22:06:06.263Z,99299.81
2022-09-26T22:08:34.812Z,99296.16
2022-09-26T22:11:03.099Z,99286.66
2022-09-26T22:13:30.487Z,99284.00
2022-09-26T22:16:06.405Z,99281.53
2022-09-26T22:18:34.019Z,99275.38
2022-09-26T22:21:03.747Z,99270.22
2022-09-26T22:23:31.409Z,99270.22
2022-09-26T22:25:58.789Z,99268.56
2022-09-26T22:28:26.274Z,99265.91
2022-09-26T22:30:54.502Z,99260.56
2022-09-26T22:33:23.233Z,99258.09
2022-09-26T22:35:50.696Z,99252.41
2022-09-26T22:38:18.203Z,99254.41
2022-09-26T22:40:46.159Z,99250.56
2022-09-26T22:43:13.600Z,99253.03
2022-09-26T22:45:41.031Z,99246.88
2022-09-26T22:48:08.507Z,99241.91
2022-09-26T22:50:37.559Z,99248.00
2022-09-26T22:53:04.937Z,99233.84
2022-09-26T22:55:32.327Z,99231.19
2022-09-26T22:57:59.706Z,99228.31
2022-09-26T23:00:27.134Z,99234.34
2022-09-26T23:02:54.560Z,99229.84
2022-09-26T23:05:21.994Z,99226.50
2022-09-26T23:07:53.650Z,99222.00
2022-09-26T23:10:22.121Z,99214.97
2022-09-26T23:12:50.544Z,99205.84
2022-09-26T23:15:19.298Z,99203.00
2022-09-26T23:17:47.183Z,99201.31
2022-09-26T23:20:14.613Z,99188.00
2022-09-26T23:22:41.987Z,99187.00
2022-09-26T23:25:11.717Z,99179.81
2022-09-26T23:27:39.094Z,99183.47
2022-09-26T23:30:07.833Z,99177.50
2022-09-26T23:32:35.228Z,99181.66
2022-09-26T23:35:02.606Z,99176.16
2022-09-26T23:37:31.019Z,99175.47
2022-09-26T23:39:58.408Z,99159.31
2022-09-26T23:42:27.093Z,99169.16
2022-09-26T23:44:54.512Z,99162.16
2022-09-26T23:47:21.891Z,99158.66
2022-09-26T23:49:49.260Z,99161.97
2022-09-26T23:52:16.644Z,99157.66
2022-09-26T23:54:44.009Z,99155.19
2022-09-26T23:57:11.436Z,99151.50
2022-09-26T23:59:40.131Z,99152.50
